Huff, Kentucky
Current Conditions -  °F | °C
As of 8:17 PM on Sunday 25 Jan 2015 (Local Time) from KBWG Reporting Station
Light Rain Light Rain  
Wind Chill: 37°   Ceiling: 1500
Heat Index: 40°   Visibility: 7mi
Dew Point: 37°   Wind: 5mph
Humidity: 89%   Direction: 230°SW
Pressure: 29.69"   Gusts: NA
Location:  37.2379°N, 86.3446°W
Report Text: KBWG 260217Z AUTO 23004KT 7SM -RA FEW009 BKN015 OVC024 04/03 A2969 RMK AO2 P0001 T00440028
Loading
Personal Weather Stations






























Interactive Weather Map New forecast layout! Learn more

10-Day Weather Forecast

Advertisements
Track Severe Weather on mobile